QXE2572 KBOI-KGEG
Flight info
| Callsign | QXE2572 |
|---|---|
| Flight time | 0h 50m |
| Altitude | 30000 |
| Route | VALYY ODYSY GEG |
| Aircraft | E75L/M-SDE3GILORVW/S |
Departure
| Time | 2026-04-25 17:21 |
|---|---|
| Airport | Boise Air Terminal/Gowen Field (KBOI) |
Arrival
| Time | 2026-04-25 18:12 |
|---|---|
| Airport | Spokane International Airport (KGEG) |
| Time | Latitude | Longitude | Altitude | Speed | Heading |
|---|---|---|---|---|---|
| 2026-04-25 17:04 | 43.56845 | -116.22377 | 2879 ft | 0 kts | 99° |
| 2026-04-25 17:14 | 43.56846 | -116.22393 | 2879 ft | 3 kts | 93° |
| 2026-04-25 17:14 | 43.56843 | -116.22421 | 2879 ft | 4 kts | 44° |
| 2026-04-25 17:14 | 43.56820 | -116.22440 | 2879 ft | 4 kts | 28° |
| 2026-04-25 17:15 | 43.56796 | -116.22456 | 2879 ft | 4 kts | 24° |
| 2026-04-25 17:15 | 43.56789 | -116.22461 | 2879 ft | 2 kts | 25° |
| 2026-04-25 17:16 | 43.56789 | -116.22460 | 2879 ft | 0 kts | 28° |
| 2026-04-25 17:17 | 43.56791 | -116.22456 | 2879 ft | 1 kts | 59° |
| 2026-04-25 17:17 | 43.56789 | -116.22448 | 2879 ft | 1 kts | 124° |
| 2026-04-25 17:17 | 43.56778 | -116.22448 | 2879 ft | 4 kts | 199° |
| 2026-04-25 17:17 | 43.56755 | -116.22500 | 2879 ft | 9 kts | 260° |
| 2026-04-25 17:18 | 43.56776 | -116.22619 | 2879 ft | 17 kts | 293° |
| 2026-04-25 17:18 | 43.56834 | -116.22793 | 2879 ft | 22 kts | 295° |
| 2026-04-25 17:18 | 43.56901 | -116.22997 | 2878 ft | 24 kts | 298° |
| 2026-04-25 17:18 | 43.56976 | -116.23208 | 2878 ft | 25 kts | 294° |
| 2026-04-25 17:19 | 43.57084 | -116.23388 | 2879 ft | 17 kts | 316° |
| 2026-04-25 17:19 | 43.57105 | -116.23512 | 2879 ft | 13 kts | 280° |
| 2026-04-25 17:19 | 43.57114 | -116.23641 | 2880 ft | 14 kts | 267° |
| 2026-04-25 17:19 | 43.57102 | -116.23782 | 2880 ft | 16 kts | 263° |
| 2026-04-25 17:20 | 43.57085 | -116.23943 | 2880 ft | 18 kts | 257° |
| 2026-04-25 17:20 | 43.57056 | -116.24098 | 2880 ft | 15 kts | 254° |
| 2026-04-25 17:20 | 43.57010 | -116.24197 | 2880 ft | 11 kts | 179° |
| 2026-04-25 17:20 | 43.56954 | -116.24096 | 2882 ft | 24 kts | 118° |
| 2026-04-25 17:21 | 43.56892 | -116.23928 | 2882 ft | 28 kts | 116° |
| 2026-04-25 17:21 | 43.56705 | -116.23388 | 2879 ft | 98 kts | 115° |
| 2026-04-25 17:21 | 43.56328 | -116.22273 | 2955 ft | 149 kts | 113° |
| 2026-04-25 17:21 | 43.55931 | -116.20850 | 3508 ft | 165 kts | 112° |
| 2026-04-25 17:22 | 43.55699 | -116.19292 | 3878 ft | 176 kts | 93° |
| 2026-04-25 17:22 | 43.55719 | -116.18735 | 4017 ft | 181 kts | 85° |
| 2026-04-25 17:22 | 43.56651 | -116.15968 | 4826 ft | 206 kts | 49° |
| 2026-04-25 17:22 | 43.57841 | -116.14751 | 5396 ft | 216 kts | 26° |
| 2026-04-25 17:23 | 43.59284 | -116.14207 | 5893 ft | 220 kts | 9° |
| 2026-04-25 17:23 | 43.60818 | -116.13938 | 6329 ft | 224 kts | 7° |
| 2026-04-25 17:23 | 43.62377 | -116.13706 | 6771 ft | 226 kts | 6° |
| 2026-04-25 17:23 | 43.63956 | -116.13461 | 7162 ft | 229 kts | 7° |
| 2026-04-25 17:24 | 43.65551 | -116.13216 | 7596 ft | 233 kts | 6° |
| 2026-04-25 17:24 | 43.67185 | -116.12965 | 8088 ft | 242 kts | 6° |
| 2026-04-25 17:24 | 43.68956 | -116.12722 | 8265 ft | 266 kts | 4° |
| 2026-04-25 17:24 | 43.70850 | -116.12502 | 8712 ft | 277 kts | 5° |
| 2026-04-25 17:25 | 43.72745 | -116.12236 | 9413 ft | 278 kts | 5° |
| 2026-04-25 17:25 | 43.74671 | -116.11942 | 10086 ft | 278 kts | 5° |
| 2026-04-25 17:25 | 43.76663 | -116.11649 | 10247 ft | 297 kts | 3° |
| 2026-04-25 17:25 | 43.78797 | -116.11441 | 10316 ft | 317 kts | 2° |
| 2026-04-25 17:26 | 43.81060 | -116.11252 | 10371 ft | 334 kts | 2° |
| 2026-04-25 17:26 | 43.82609 | -116.11120 | 10539 ft | 338 kts | 2° |
| 2026-04-25 17:26 | 43.84963 | -116.10877 | 10987 ft | 340 kts | 3° |
| 2026-04-25 17:26 | 43.88089 | -116.10510 | 11666 ft | 341 kts | 3° |
| 2026-04-25 17:27 | 43.90461 | -116.10244 | 12192 ft | 342 kts | 2° |
| 2026-04-25 17:27 | 43.92849 | -116.09988 | 12692 ft | 345 kts | 2° |
| 2026-04-25 17:27 | 43.94465 | -116.09825 | 13032 ft | 347 kts | 2° |
| 2026-04-25 17:27 | 43.96065 | -116.09670 | 13385 ft | 348 kts | 1° |
| 2026-04-25 17:28 | 43.99286 | -116.09368 | 14066 ft | 352 kts | 1° |
| 2026-04-25 17:28 | 44.01741 | -116.09149 | 14563 ft | 355 kts | 0° |
| 2026-04-25 17:28 | 44.04216 | -116.08943 | 15067 ft | 358 kts | 0° |
| 2026-04-25 17:28 | 44.06718 | -116.08745 | 15593 ft | 361 kts | 360° |
| 2026-04-25 17:29 | 44.09241 | -116.08556 | 16138 ft | 364 kts | 359° |
| 2026-04-25 17:29 | 44.11780 | -116.08379 | 16707 ft | 367 kts | 359° |
| 2026-04-25 17:29 | 44.14350 | -116.08211 | 17266 ft | 371 kts | 359° |
| 2026-04-25 17:29 | 44.16946 | -116.08058 | 17863 ft | 374 kts | 359° |
| 2026-04-25 17:30 | 44.19567 | -116.07917 | 18440 ft | 378 kts | 358° |
| 2026-04-25 17:30 | 44.22171 | -116.07783 | 19001 ft | 381 kts | 359° |
| 2026-04-25 17:30 | 44.24829 | -116.07472 | 19568 ft | 385 kts | 2° |
| 2026-04-25 17:30 | 44.27507 | -116.07081 | 20139 ft | 389 kts | 2° |
| 2026-04-25 17:31 | 44.30208 | -116.06703 | 20685 ft | 392 kts | 2° |
| 2026-04-25 17:31 | 44.32929 | -116.06335 | 21234 ft | 394 kts | 2° |
| 2026-04-25 17:31 | 44.35672 | -116.05979 | 21765 ft | 397 kts | 1° |
| 2026-04-25 17:31 | 44.38402 | -116.06275 | 22238 ft | 393 kts | 342° |
| 2026-04-25 17:32 | 44.41020 | -116.07401 | 22786 ft | 395 kts | 339° |
| 2026-04-25 17:32 | 44.43642 | -116.08636 | 23325 ft | 399 kts | 338° |
| 2026-04-25 17:32 | 44.46281 | -116.09877 | 23812 ft | 402 kts | 339° |
| 2026-04-25 17:32 | 44.48942 | -116.11118 | 24272 ft | 404 kts | 339° |
| 2026-04-25 17:33 | 44.51619 | -116.12362 | 24729 ft | 407 kts | 339° |
| 2026-04-25 17:33 | 44.54321 | -116.13616 | 25181 ft | 410 kts | 340° |
| 2026-04-25 17:33 | 44.57039 | -116.14875 | 25678 ft | 411 kts | 340° |
| 2026-04-25 17:33 | 44.59758 | -116.16137 | 26243 ft | 410 kts | 340° |
| 2026-04-25 17:34 | 44.62465 | -116.17394 | 26802 ft | 409 kts | 340° |
| 2026-04-25 17:34 | 44.65165 | -116.18649 | 27359 ft | 408 kts | 340° |
| 2026-04-25 17:34 | 44.67862 | -116.19903 | 27906 ft | 408 kts | 341° |
| 2026-04-25 17:34 | 44.70561 | -116.21163 | 28459 ft | 408 kts | 341° |
| 2026-04-25 17:35 | 44.73219 | -116.22405 | 28963 ft | 407 kts | 341° |
| 2026-04-25 17:35 | 44.75905 | -116.23664 | 29486 ft | 407 kts | 341° |
| 2026-04-25 17:35 | 44.78586 | -116.24921 | 30011 ft | 405 kts | 342° |
| 2026-04-25 17:35 | 44.81294 | -116.26194 | 30053 ft | 416 kts | 342° |
| 2026-04-25 17:36 | 44.86923 | -116.28864 | 30039 ft | 436 kts | 341° |
| 2026-04-25 17:36 | 44.92798 | -116.31654 | 29956 ft | 452 kts | 342° |
| 2026-04-25 17:37 | 44.98804 | -116.34510 | 29955 ft | 457 kts | 342° |
| 2026-04-25 17:37 | 45.04798 | -116.37367 | 29960 ft | 457 kts | 342° |
| 2026-04-25 17:38 | 45.09806 | -116.39759 | 29961 ft | 456 kts | 342° |
| 2026-04-25 17:38 | 45.16825 | -116.43118 | 29966 ft | 455 kts | 342° |
| 2026-04-25 17:39 | 45.22836 | -116.46002 | 29966 ft | 456 kts | 342° |
| 2026-04-25 17:39 | 45.28808 | -116.48873 | 29969 ft | 454 kts | 342° |
| 2026-04-25 17:40 | 45.34775 | -116.51749 | 29975 ft | 453 kts | 342° |
| 2026-04-25 17:40 | 45.40751 | -116.54635 | 29977 ft | 453 kts | 342° |
| 2026-04-25 17:41 | 45.46725 | -116.57527 | 29984 ft | 453 kts | 342° |
| 2026-04-25 17:41 | 45.52674 | -116.60414 | 29980 ft | 450 kts | 341° |
| 2026-04-25 17:42 | 45.58582 | -116.63287 | 29986 ft | 450 kts | 341° |
| 2026-04-25 17:42 | 45.64515 | -116.66178 | 29985 ft | 450 kts | 341° |
| 2026-04-25 17:43 | 45.70457 | -116.69080 | 29994 ft | 450 kts | 341° |
| 2026-04-25 17:43 | 45.76385 | -116.71982 | 29996 ft | 450 kts | 341° |
| 2026-04-25 17:44 | 45.82275 | -116.74872 | 29993 ft | 450 kts | 341° |
| 2026-04-25 17:44 | 45.88204 | -116.77788 | 29988 ft | 449 kts | 341° |
| 2026-04-25 17:45 | 45.93121 | -116.80211 | 29989 ft | 449 kts | 341° |
| 2026-04-25 17:45 | 46.00045 | -116.83630 | 29986 ft | 450 kts | 341° |
| 2026-04-25 17:46 | 46.05965 | -116.86562 | 29994 ft | 449 kts | 341° |
| 2026-04-25 17:46 | 46.11853 | -116.89484 | 30000 ft | 449 kts | 341° |
| 2026-04-25 17:47 | 46.17768 | -116.92425 | 29999 ft | 450 kts | 341° |
| 2026-04-25 17:47 | 46.23692 | -116.95378 | 30002 ft | 449 kts | 341° |
| 2026-04-25 17:48 | 46.32545 | -116.99803 | 30001 ft | 450 kts | 342° |
| 2026-04-25 17:49 | 46.38481 | -117.02778 | 29999 ft | 452 kts | 342° |
| 2026-04-25 17:49 | 46.44422 | -117.05763 | 29996 ft | 452 kts | 342° |
| 2026-04-25 17:50 | 46.50378 | -117.08763 | 29996 ft | 453 kts | 343° |
| 2026-04-25 17:50 | 46.56340 | -117.11772 | 29993 ft | 453 kts | 343° |
| 2026-04-25 17:51 | 46.62294 | -117.14785 | 29987 ft | 453 kts | 343° |
| 2026-04-25 17:51 | 46.68209 | -117.17786 | 29981 ft | 453 kts | 343° |
| 2026-04-25 17:52 | 46.74328 | -117.19643 | 30101 ft | 449 kts | 359° |
| 2026-04-25 17:52 | 46.75388 | -117.19680 | 29917 ft | 450 kts | 1° |
| 2026-04-25 17:52 | 46.80502 | -117.18861 | 28918 ft | 440 kts | 11° |
| 2026-04-25 17:52 | 46.83505 | -117.18096 | 28367 ft | 435 kts | 11° |
| 2026-04-25 17:53 | 46.86469 | -117.17318 | 27872 ft | 432 kts | 11° |
| 2026-04-25 17:53 | 46.89388 | -117.16537 | 27267 ft | 429 kts | 11° |
| 2026-04-25 17:53 | 46.92304 | -117.15739 | 26689 ft | 425 kts | 12° |
| 2026-04-25 17:53 | 46.95198 | -117.14934 | 26126 ft | 418 kts | 11° |
| 2026-04-25 17:54 | 46.98000 | -117.14136 | 25567 ft | 405 kts | 12° |
| 2026-04-25 17:54 | 47.00764 | -117.13340 | 25024 ft | 402 kts | 12° |
| 2026-04-25 17:54 | 47.03504 | -117.12545 | 24490 ft | 401 kts | 12° |
| 2026-04-25 17:54 | 47.06207 | -117.11807 | 23955 ft | 399 kts | 9° |
| 2026-04-25 17:55 | 47.08930 | -117.11251 | 23366 ft | 388 kts | 8° |
| 2026-04-25 17:55 | 47.11581 | -117.10741 | 22710 ft | 378 kts | 7° |
| 2026-04-25 17:55 | 47.14182 | -117.10237 | 22057 ft | 374 kts | 7° |
| 2026-04-25 17:55 | 47.16760 | -117.09723 | 21421 ft | 372 kts | 7° |
| 2026-04-25 17:56 | 47.19312 | -117.09206 | 20781 ft | 369 kts | 7° |
| 2026-04-25 17:56 | 47.21844 | -117.08683 | 20179 ft | 366 kts | 7° |
| 2026-04-25 17:56 | 47.24361 | -117.08149 | 19595 ft | 364 kts | 7° |
| 2026-04-25 17:56 | 47.26855 | -117.07610 | 19015 ft | 361 kts | 7° |
| 2026-04-25 17:57 | 47.29331 | -117.07064 | 18449 ft | 358 kts | 7° |
| 2026-04-25 17:57 | 47.31794 | -117.06508 | 17806 ft | 357 kts | 7° |
| 2026-04-25 17:57 | 47.34206 | -117.05949 | 17158 ft | 354 kts | 8° |
| 2026-04-25 17:57 | 47.35029 | -117.05759 | 16939 ft | 353 kts | 8° |
| 2026-04-25 17:58 | 47.39022 | -117.04842 | 15905 ft | 345 kts | 7° |
| 2026-04-25 17:58 | 47.41360 | -117.04297 | 15262 ft | 335 kts | 7° |
| 2026-04-25 17:58 | 47.43634 | -117.03766 | 14653 ft | 328 kts | 8° |
| 2026-04-25 17:58 | 47.45880 | -117.03244 | 14073 ft | 324 kts | 8° |
| 2026-04-25 17:59 | 47.48080 | -117.02730 | 13448 ft | 322 kts | 7° |
| 2026-04-25 17:59 | 47.50288 | -117.02214 | 12781 ft | 320 kts | 7° |
| 2026-04-25 17:59 | 47.52486 | -117.01704 | 12130 ft | 318 kts | 8° |
| 2026-04-25 17:59 | 47.54655 | -117.01190 | 11510 ft | 309 kts | 7° |
| 2026-04-25 18:00 | 47.56722 | -117.00696 | 10872 ft | 292 kts | 8° |
| 2026-04-25 18:00 | 47.58683 | -117.00220 | 10230 ft | 280 kts | 8° |
| 2026-04-25 18:00 | 47.60565 | -116.99761 | 9610 ft | 271 kts | 7° |
| 2026-04-25 18:00 | 47.62405 | -116.99308 | 8967 ft | 264 kts | 8° |
| 2026-04-25 18:01 | 47.64191 | -116.98877 | 8326 ft | 256 kts | 8° |
| 2026-04-25 18:01 | 47.65905 | -116.98477 | 7702 ft | 242 kts | 8° |
| 2026-04-25 18:01 | 47.67557 | -116.98117 | 7098 ft | 238 kts | 8° |
| 2026-04-25 18:01 | 47.69190 | -116.97783 | 6499 ft | 234 kts | 7° |
| 2026-04-25 18:02 | 47.70790 | -116.97973 | 5852 ft | 232 kts | 339° |
| 2026-04-25 18:02 | 47.72044 | -116.99321 | 5609 ft | 215 kts | 315° |
| 2026-04-25 18:02 | 47.73043 | -117.00727 | 6039 ft | 183 kts | 317° |
| 2026-04-25 18:02 | 47.73873 | -117.01872 | 6958 ft | 156 kts | 316° |
| 2026-04-25 18:03 | 47.74776 | -117.03126 | 6455 ft | 183 kts | 317° |
| 2026-04-25 18:03 | 47.75688 | -117.04377 | 6744 ft | 176 kts | 316° |
| 2026-04-25 18:03 | 47.76632 | -117.05727 | 6443 ft | 192 kts | 310° |
| 2026-04-25 18:03 | 47.77191 | -117.07503 | 6316 ft | 190 kts | 287° |
| 2026-04-25 18:04 | 47.77548 | -117.09438 | 6151 ft | 202 kts | 283° |
| 2026-04-25 18:04 | 47.77685 | -117.11507 | 6227 ft | 186 kts | 270° |
| 2026-04-25 18:04 | 47.77654 | -117.13536 | 5893 ft | 199 kts | 262° |
| 2026-04-25 18:04 | 47.77508 | -117.15531 | 5851 ft | 188 kts | 263° |
| 2026-04-25 18:05 | 47.77308 | -117.17484 | 5705 ft | 194 kts | 254° |
| 2026-04-25 18:05 | 47.76833 | -117.19296 | 5550 ft | 178 kts | 241° |
| 2026-04-25 18:05 | 47.76337 | -117.20885 | 5280 ft | 166 kts | 246° |
| 2026-04-25 18:05 | 47.75944 | -117.22420 | 5140 ft | 153 kts | 248° |
| 2026-04-25 18:06 | 47.75622 | -117.23879 | 4908 ft | 147 kts | 251° |
| 2026-04-25 18:06 | 47.75367 | -117.25305 | 4865 ft | 140 kts | 252° |
| 2026-04-25 18:06 | 47.75135 | -117.26755 | 4860 ft | 150 kts | 255° |
| 2026-04-25 18:06 | 47.74936 | -117.28293 | 4704 ft | 153 kts | 259° |
| 2026-04-25 18:07 | 47.74788 | -117.29855 | 4359 ft | 151 kts | 259° |
| 2026-04-25 18:07 | 47.74650 | -117.31365 | 4122 ft | 143 kts | 259° |
| 2026-04-25 18:07 | 47.74414 | -117.32773 | 3985 ft | 136 kts | 248° |
| 2026-04-25 18:07 | 47.74116 | -117.34080 | 4196 ft | 139 kts | 247° |
| 2026-04-25 18:08 | 47.73684 | -117.35404 | 4322 ft | 145 kts | 240° |
| 2026-04-25 18:08 | 47.73089 | -117.36616 | 4290 ft | 147 kts | 228° |
| 2026-04-25 18:08 | 47.72430 | -117.37750 | 4229 ft | 142 kts | 223° |
| 2026-04-25 18:08 | 47.71731 | -117.38783 | 4196 ft | 144 kts | 221° |
| 2026-04-25 18:09 | 47.71012 | -117.39839 | 4106 ft | 140 kts | 223° |
| 2026-04-25 18:09 | 47.70342 | -117.40882 | 4162 ft | 142 kts | 224° |
| 2026-04-25 18:09 | 47.69650 | -117.41951 | 4084 ft | 143 kts | 223° |
| 2026-04-25 18:09 | 47.69413 | -117.42303 | 4053 ft | 143 kts | 222° |
| 2026-04-25 18:10 | 47.68247 | -117.44056 | 3847 ft | 146 kts | 223° |
| 2026-04-25 18:10 | 47.67546 | -117.45124 | 3633 ft | 143 kts | 222° |
| 2026-04-25 18:10 | 47.66848 | -117.46164 | 3447 ft | 140 kts | 223° |
| 2026-04-25 18:10 | 47.66174 | -117.47189 | 3250 ft | 138 kts | 224° |
| 2026-04-25 18:11 | 47.65503 | -117.48225 | 3034 ft | 139 kts | 224° |
| 2026-04-25 18:11 | 47.64820 | -117.49248 | 2831 ft | 140 kts | 224° |
| 2026-04-25 18:11 | 47.64137 | -117.50276 | 2653 ft | 139 kts | 225° |
| 2026-04-25 18:11 | 47.63462 | -117.51306 | 2480 ft | 139 kts | 226° |
| 2026-04-25 18:12 | 47.62808 | -117.52299 | 2394 ft | 130 kts | 225° |
| 2026-04-25 18:12 | 47.62300 | -117.53076 | 2393 ft | 75 kts | 225° |
| 2026-04-25 18:12 | 47.62054 | -117.53496 | 2390 ft | 36 kts | 242° |
| 2026-04-25 18:12 | 47.62019 | -117.53649 | 2387 ft | 13 kts | 253° |
| 2026-04-25 18:13 | 47.61996 | -117.53787 | 2387 ft | 14 kts | 267° |
| 2026-04-25 18:13 | 47.62046 | -117.53841 | 2387 ft | 10 kts | 29° |
| 2026-04-25 18:13 | 47.62107 | -117.53761 | 2390 ft | 13 kts | 44° |
| 2026-04-25 18:14 | 47.62249 | -117.53790 | 2389 ft | 14 kts | 318° |
| 2026-04-25 18:14 | 47.62271 | -117.53875 | 2387 ft | 10 kts | 265° |
| 2026-04-25 18:14 | 47.62268 | -117.53993 | 2387 ft | 10 kts | 270° |
| 2026-04-25 18:14 | 47.62274 | -117.54078 | 2387 ft | 8 kts | 303° |
| 2026-04-25 18:15 | 47.62308 | -117.54100 | 2387 ft | 7 kts | 356° |
| 2026-04-25 18:15 | 47.62334 | -117.54100 | 2389 ft | 3 kts | 360° |
| 2026-04-25 18:15 | 47.62342 | -117.54100 | 2390 ft | 0 kts | 360° |